Time;durP1;ratioP1;P1;durP2;ratioP2;P2;SDS_P1;SDS_P2;PMS_P1;PMS_P2;Temp;Humidity;BMP_temperature;BMP_pressure;BME280_temperature;BME280_humidity;BME280_pressure;Samples;Min_cycle;Max_cycle;Signal;HPM_P1;HPM_P2
2023/12/04 00:03:31;;;;;;;;;;;;;;;-6.78;100.00;95886.13;10589280;27;2974;-74
2023/12/04 00:08:37;;;;;;;;;;;;;;;-6.66;100.00;95890.06;10572201;27;2925;-71
2023/12/04 00:13:40;;;;;;;;;;;;;;;-6.69;100.00;95879.09;10598781;27;2831;-71
2023/12/04 00:18:43;;;;;;;;;;;;;;;-6.97;100.00;95871.59;10596310;27;2862;-73
2023/12/04 00:23:46;;;;;;;;;;;;;;;-6.83;100.00;95868.31;10597982;27;3341;-73
2023/12/04 00:28:49;;;;;;;;;;;;;;;-6.88;100.00;95861.94;10595256;27;2913;-77
2023/12/04 00:33:52;;;;;;;;;;;;;;;-6.99;100.00;95857.06;10596659;27;2823;-74
2023/12/04 00:38:56;;;;;;;;;;;;;;;-6.89;100.00;95857.69;10594326;27;2895;-71
2023/12/04 00:43:58;;;;;;;;;;;;;;;-6.89;100.00;95852.47;10594068;27;4756;-74
2023/12/04 00:49:01;;;;;;;;;;;;;;;-6.94;100.00;95855.56;10598998;27;2828;-73
2023/12/04 00:54:05;;;;;;;;;;;;;;;-6.91;100.00;95867.50;10598230;27;2874;-71
2023/12/04 00:59:08;;;;;;;;;;;;;;;-6.92;100.00;95852.81;10596140;27;2804;-72
2023/12/04 01:04:11;;;;;;;;;;;;;;;-6.95;100.00;95847.91;10592844;27;2993;-73
2023/12/04 01:09:14;;;;;;;;;;;;;;;-7.05;100.00;95842.03;10590792;27;3068;-71
2023/12/04 01:14:16;;;;;;;;;;;;;;;-7.00;100.00;95829.28;10588251;27;2860;-71
2023/12/04 01:19:20;;;;;;;;;;;;;;;-7.04;100.00;95820.97;10586308;27;2837;-74
2023/12/04 01:24:22;;;;;;;;;;;;;;;-7.09;100.00;95831.91;10594489;27;2847;-73
2023/12/04 01:29:25;;;;;;;;;;;;;;;-7.08;100.00;95830.91;10592768;27;2942;-75
2023/12/04 01:34:29;;;;;;;;;;;;;;;-7.10;100.00;95822.44;10585476;27;2862;-72
2023/12/04 01:39:31;;;;;;;;;;;;;;;-7.06;100.00;95820.31;10589805;27;2922;-71
2023/12/04 01:44:37;;;;;;;;;;;;;;;-7.15;100.00;95816.88;10590941;27;4728;-72
2023/12/04 01:49:42;;;;;;;;;;;;;;;-7.23;100.00;95795.97;10593966;27;3105;-71
2023/12/04 01:54:45;;;;;;;;;;;;;;;-7.33;100.00;95792.69;10592377;27;2867;-72
2023/12/04 01:59:48;;;;;;;;;;;;;;;-7.72;100.00;95787.25;10589987;27;3214;-71
2023/12/04 02:04:57;;;;;;;;;;;;;;;-7.86;100.00;95778.28;10587278;27;2816;-71
2023/12/04 02:10:02;;;;;;;;;;;;;;;-7.90;100.00;95771.72;10586469;27;2975;-72
2023/12/04 02:15:06;;;;;;;;;;;;;;;-8.16;100.00;95761.38;10588647;27;2963;-76
2023/12/04 02:20:11;;;;;;;;;;;;;;;-8.21;100.00;95742.78;10591531;27;2880;-76
2023/12/04 02:25:14;;;;;;;;;;;;;;;-8.36;100.00;95737.41;10590864;27;2839;-76
2023/12/04 02:30:37;;;;;;;;;;;;;;;-8.32;100.00;95743.09;10602337;27;2914;-70
2023/12/04 02:35:40;;;;;;;;;;;;;;;-8.32;100.00;95737.88;10604811;27;2906;-72
2023/12/04 02:40:46;;;;;;;;;;;;;;;-8.31;100.00;95737.72;10600214;27;2931;-71
2023/12/04 02:45:49;;;;;;;;;;;;;;;-8.28;100.00;95728.75;10601737;27;4677;-70
2023/12/04 02:50:52;;;;;;;;;;;;;;;-8.70;100.00;95729.63;10601110;27;2882;-72
2023/12/04 02:55:55;;;;;;;;;;;;;;;-8.80;100.00;95729.72;10603092;27;2882;-70
2023/12/04 03:00:57;;;;;;;;;;;;;;;-8.87;100.00;95728.72;10606396;27;2979;-71
2023/12/04 03:06:00;;;;;;;;;;;;;;;-8.89;100.00;95719.44;10602500;27;2826;-71
2023/12/04 03:11:03;;;;;;;;;;;;;;;-8.91;100.00;95706.53;10603679;27;3217;-71
2023/12/04 03:16:06;;;;;;;;;;;;;;;-8.98;100.00;95695.91;10582436;27;2846;-77
2023/12/04 03:21:10;;;;;;;;;;;;;;;-9.14;100.00;95679.41;10604495;27;2902;-74
2023/12/04 03:26:13;;;;;;;;;;;;;;;-9.17;100.00;95690.13;10610974;27;2875;-74
2023/12/04 03:31:16;;;;;;;;;;;;;;;-9.50;100.00;95679.50;10603004;27;2930;-70
2023/12/04 03:36:19;;;;;;;;;;;;;;;-9.43;100.00;95674.50;10597522;27;2909;-71
2023/12/04 03:41:23;;;;;;;;;;;;;;;-9.49;100.00;95665.50;10592878;27;2920;-71
2023/12/04 03:46:26;;;;;;;;;;;;;;;-9.41;100.00;95673.41;10590247;27;4792;-72
2023/12/04 03:51:29;;;;;;;;;;;;;;;-9.39;100.00;95671.44;10597786;27;2885;-72
2023/12/04 03:56:32;;;;;;;;;;;;;;;-9.37;100.00;95666.09;10593923;27;2844;-73
2023/12/04 04:01:35;;;;;;;;;;;;;;;-9.40;100.00;95663.81;10587411;27;2855;-72
2023/12/04 04:06:39;;;;;;;;;;;;;;;-9.48;100.00;95656.72;10571627;27;2963;-73
2023/12/04 04:11:43;;;;;;;;;;;;;;;-9.87;100.00;95653.69;10597687;27;2875;-76
2023/12/04 04:16:48;;;;;;;;;;;;;;;-9.72;100.00;95648.78;10589990;27;2927;-74
2023/12/04 04:21:51;;;;;;;;;;;;;;;-9.86;100.00;95634.53;10596069;27;2949;-73
2023/12/04 04:26:55;;;;;;;;;;;;;;;-9.86;100.00;95632.75;10596165;27;3010;-72
2023/12/04 04:31:59;;;;;;;;;;;;;;;-9.96;100.00;95626.81;10597707;27;2866;-72
2023/12/04 04:37:02;;;;;;;;;;;;;;;-9.98;100.00;95622.75;10592417;27;3257;-70
2023/12/04 04:42:05;;;;;;;;;;;;;;;-9.95;100.00;95630.25;10594450;27;2930;-74
2023/12/04 04:47:08;;;;;;;;;;;;;;;-9.66;100.00;95636.00;10590768;27;4629;-74
2023/12/04 04:52:11;;;;;;;;;;;;;;;-9.39;100.00;95635.00;10588335;27;2790;-73
2023/12/04 04:57:14;;;;;;;;;;;;;;;-9.28;100.00;95637.34;10590231;27;2912;-72
2023/12/04 05:02:17;;;;;;;;;;;;;;;-8.89;100.00;95610.84;10593908;27;2822;-72
2023/12/04 05:07:20;;;;;;;;;;;;;;;-9.36;100.00;95595.66;10593913;27;2798;-71
2023/12/04 05:12:23;;;;;;;;;;;;;;;-9.21;100.00;95587.28;10587523;27;2947;-71
2023/12/04 05:17:26;;;;;;;;;;;;;;;-9.09;100.00;95576.41;10593407;27;2805;-71
2023/12/04 05:22:30;;;;;;;;;;;;;;;-8.99;100.00;95574.47;10594410;27;2794;-70
2023/12/04 05:27:33;;;;;;;;;;;;;;;-8.89;100.00;95579.56;10591053;27;2841;-70
2023/12/04 05:32:36;;;;;;;;;;;;;;;-8.75;100.00;95581.56;10595770;27;2882;-70
2023/12/04 05:37:38;;;;;;;;;;;;;;;-8.66;100.00;95569.34;10591329;27;2863;-71
2023/12/04 05:42:47;;;;;;;;;;;;;;;-8.56;100.00;95561.41;10592540;27;2822;-72
2023/12/04 05:47:50;;;;;;;;;;;;;;;-8.50;100.00;95563.38;10593433;27;4689;-70
2023/12/04 05:52:55;;;;;;;;;;;;;;;-8.45;100.00;95572.34;10588313;27;2811;-72
2023/12/04 05:57:58;;;;;;;;;;;;;;;-8.59;100.00;95564.31;10585863;27;2869;-72
2023/12/04 06:03:01;;;;;;;;;;;;;;;-8.56;100.00;95567.44;10592562;27;2870;-74
2023/12/04 06:08:05;;;;;;;;;;;;;;;-8.41;100.00;95562.38;10574886;27;2846;-71
2023/12/04 06:13:08;;;;;;;;;;;;;;;-8.40;100.00;95553.59;10592559;27;2903;-75
2023/12/04 06:18:13;;;;;;;;;;;;;;;-8.43;100.00;95538.28;10602810;27;2824;-71
2023/12/04 06:23:16;;;;;;;;;;;;;;;-8.38;100.00;95536.00;10600852;27;2802;-68
2023/12/04 06:33:50;;;;;;;;;;;;;;;-8.57;100.00;95533.72;10594397;27;2900;-73
2023/12/04 06:38:53;;;;;;;;;;;;;;;-8.32;100.00;95524.91;10577290;27;2814;-72
2023/12/04 06:44:04;;;;;;;;;;;;;;;-8.33;100.00;95519.81;10601045;27;4910;-69
2023/12/04 06:49:16;;;;;;;;;;;;;;;-8.26;100.00;95510.41;10602470;27;2800;-69
2023/12/04 06:54:21;;;;;;;;;;;;;;;-8.22;100.00;95498.63;10594598;27;2883;-70
2023/12/04 06:59:33;;;;;;;;;;;;;;;-8.14;100.00;95506.47;10597995;27;3024;-71
2023/12/04 07:04:44;;;;;;;;;;;;;;;-8.03;100.00;95508.72;10600974;27;2882;-71
2023/12/04 07:09:47;;;;;;;;;;;;;;;-8.11;100.00;95502.72;10594934;27;2874;-70
2023/12/04 07:14:54;;;;;;;;;;;;;;;-7.98;100.00;95495.19;10606832;27;2818;-71
2023/12/04 07:19:59;;;;;;;;;;;;;;;-7.88;100.00;95480.19;10608641;27;2802;-68
2023/12/04 07:30:31;;;;;;;;;;;;;;;-7.63;100.00;95468.69;10514544;27;2905;-73
2023/12/04 07:35:34;;;;;;;;;;;;;;;-7.72;100.00;95463.66;10520140;28;2856;-73
2023/12/04 07:40:36;;;;;;;;;;;;;;;-7.81;100.00;95449.00;10513539;28;2888;-71
2023/12/04 07:45:39;;;;;;;;;;;;;;;-8.11;100.00;95453.16;10516069;28;2796;-72
2023/12/04 07:50:43;;;;;;;;;;;;;;;-8.05;100.00;95439.47;10512668;28;3076;-70
2023/12/04 07:55:46;;;;;;;;;;;;;;;-8.08;100.00;95447.59;10511698;28;2905;-68
2023/12/04 08:00:50;;;;;;;;;;;;;;;-7.92;100.00;95437.13;10503158;28;2811;-70
2023/12/04 08:05:52;;;;;;;;;;;;;;;-7.72;100.00;95458.44;10503175;28;2839;-70
2023/12/04 08:10:55;;;;;;;;;;;;;;;-7.28;100.00;95469.19;10498722;28;2820;-71
2023/12/04 08:15:57;;;;;;;;;;;;;;;-7.06;100.00;95459.78;10507019;28;2818;-71
2023/12/04 08:21:00;;;;;;;;;;;;;;;-6.78;100.00;95457.47;10502078;28;2988;-72
2023/12/04 08:26:02;;;;;;;;;;;;;;;-6.63;100.00;95441.81;10505915;28;3098;-72
2023/12/04 08:31:08;;;;;;;;;;;;;;;-6.46;100.00;95425.03;10503754;28;2907;-67
2023/12/04 08:36:11;;;;;;;;;;;;;;;-6.24;100.00;95422.53;10498968;28;2847;-67
2023/12/04 08:41:13;;;;;;;;;;;;;;;-6.21;100.00;95423.00;10486702;28;2832;-68
2023/12/04 08:46:16;;;;;;;;;;;;;;;-5.98;100.00;95425.53;10474811;28;4766;-69
2023/12/04 08:51:18;;;;;;;;;;;;;;;-5.82;100.00;95425.34;10478275;28;2852;-71
2023/12/04 08:56:21;;;;;;;;;;;;;;;-5.71;100.00;95424.06;10473680;28;2775;-69
2023/12/04 09:01:32;;;;;;;;;;;;;;;-5.76;100.00;95426.41;10475840;28;2835;-69
2023/12/04 09:06:35;;;;;;;;;;;;;;;-5.62;100.00;95422.97;10479256;28;2978;-70
2023/12/04 09:11:40;;;;;;;;;;;;;;;-5.28;100.00;95429.44;10477593;28;2836;-67
2023/12/04 09:16:43;;;;;;;;;;;;;;;-5.05;100.00;95413.56;10481490;28;2900;-68
2023/12/04 09:21:45;;;;;;;;;;;;;;;-4.99;100.00;95413.63;10476332;28;2812;-69
2023/12/04 09:26:49;;;;;;;;;;;;;;;-4.73;100.00;95396.53;10465466;28;2925;-68
2023/12/04 09:31:51;;;;;;;;;;;;;;;-4.83;100.00;95409.16;10479783;28;2798;-69
2023/12/04 09:36:54;;;;;;;;;;;;;;;-5.03;100.00;95417.63;10472743;28;2863;-74
2023/12/04 09:42:07;;;;;;;;;;;;;;;-4.75;100.00;95412.47;10474060;28;2879;-70
2023/12/04 09:47:10;;;;;;;;;;;;;;;-4.95;100.00;95414.91;10471526;28;2947;-69
2023/12/04 09:52:13;;;;;;;;;;;;;;;-4.78;100.00;95414.63;10472888;28;2795;-71
2023/12/04 09:57:15;;;;;;;;;;;;;;;-4.94;100.00;95419.13;10468604;28;2972;-68
2023/12/04 10:02:18;;;;;;;;;;;;;;;-4.77;100.00;95390.03;10479121;28;2864;-68
2023/12/04 10:07:20;;;;;;;;;;;;;;;-4.91;100.00;95382.06;10472996;28;2905;-68
2023/12/04 10:12:22;;;;;;;;;;;;;;;-4.97;100.00;95377.56;10469550;28;2837;-69
2023/12/04 10:17:25;;;;;;;;;;;;;;;-4.77;100.00;95369.91;10471343;28;2900;-68
2023/12/04 10:22:28;;;;;;;;;;;;;;;-5.20;100.00;95366.44;10463552;28;2866;-69
2023/12/04 10:27:30;;;;;;;;;;;;;;;-4.90;100.00;95348.78;10497985;27;2919;-70
2023/12/04 10:32:33;;;;;;;;;;;;;;;-4.48;100.00;95323.50;10465989;28;2835;-69
2023/12/04 10:37:36;;;;;;;;;;;;;;;-4.59;100.00;95324.84;10476534;28;2788;-71
2023/12/04 10:42:38;;;;;;;;;;;;;;;-4.13;100.00;95332.22;10472613;28;2886;-69
2023/12/04 10:47:41;;;;;;;;;;;;;;;-3.65;100.00;95332.25;10466087;28;4835;-70
2023/12/04 10:52:43;;;;;;;;;;;;;;;-4.16;100.00;95329.97;10469487;28;2805;-71
2023/12/04 10:57:48;;;;;;;;;;;;;;;-4.26;100.00;95311.13;10469794;28;3235;-66
2023/12/04 11:02:51;;;;;;;;;;;;;;;-4.15;100.00;95313.22;10469134;28;2941;-68
2023/12/04 11:07:54;;;;;;;;;;;;;;;-4.48;100.00;95305.16;10471114;28;2910;-74
2023/12/04 11:13:17;;;;;;;;;;;;;;;-4.64;100.00;95285.28;10470729;28;2993;-68
2023/12/04 11:18:20;;;;;;;;;;;;;;;-4.43;100.00;95293.06;10476380;28;2808;-69
2023/12/04 11:23:22;;;;;;;;;;;;;;;-4.31;100.00;95272.34;10475141;28;2875;-69
2023/12/04 11:28:25;;;;;;;;;;;;;;;-4.10;100.00;95259.13;10468015;28;2875;-68
2023/12/04 11:33:27;;;;;;;;;;;;;;;-4.28;100.00;95253.59;10472693;28;2828;-68
2023/12/04 11:38:30;;;;;;;;;;;;;;;-3.82;100.00;95245.94;10468483;28;2944;-68
2023/12/04 11:43:32;;;;;;;;;;;;;;;-3.36;100.00;95247.84;10467012;28;4784;-69
2023/12/04 11:48:35;;;;;;;;;;;;;;;-3.45;100.00;95233.25;10468807;28;2925;-70
2023/12/04 11:53:38;;;;;;;;;;;;;;;-3.25;100.00;95230.66;10466985;28;2899;-69
2023/12/04 11:58:41;;;;;;;;;;;;;;;-3.11;100.00;95226.25;10467141;28;2863;-68
2023/12/04 12:03:44;;;;;;;;;;;;;;;-3.24;100.00;95241.97;10461395;28;2884;-68
2023/12/04 12:08:51;;;;;;;;;;;;;;;-3.62;100.00;95247.81;10469953;28;2844;-73
2023/12/04 12:13:54;;;;;;;;;;;;;;;-3.55;100.00;95249.44;10471996;28;2906;-67
2023/12/04 12:18:56;;;;;;;;;;;;;;;-3.52;100.00;95227.19;10475454;28;3401;-66
2023/12/04 12:23:58;;;;;;;;;;;;;;;-3.64;100.00;95228.78;10472344;28;2872;-67
2023/12/04 12:29:01;;;;;;;;;;;;;;;-3.30;100.00;95231.28;10477527;28;2877;-67
2023/12/04 12:34:03;;;;;;;;;;;;;;;-3.15;100.00;95235.53;10477228;28;3312;-67
2023/12/04 12:39:08;;;;;;;;;;;;;;;-3.24;100.00;95224.41;10483584;28;2853;-67
2023/12/04 12:44:11;;;;;;;;;;;;;;;-3.40;100.00;95222.16;10474657;28;2903;-67
2023/12/04 12:49:13;;;;;;;;;;;;;;;-3.47;100.00;95232.66;10471697;28;3007;-66
2023/12/04 12:54:19;;;;;;;;;;;;;;;-3.10;100.00;95230.50;10470257;28;2829;-67
2023/12/04 12:59:22;;;;;;;;;;;;;;;-3.06;100.00;95227.22;10469781;28;2904;-68
2023/12/04 13:04:24;;;;;;;;;;;;;;;-2.58;100.00;95213.03;10473795;28;2842;-72
2023/12/04 13:09:27;;;;;;;;;;;;;;;-2.45;100.00;95199.84;10470857;28;2832;-67
2023/12/04 13:14:29;;;;;;;;;;;;;;;-2.70;100.00;95183.91;10467472;28;2913;-67
2023/12/04 13:19:34;;;;;;;;;;;;;;;-2.87;100.00;95172.19;10471055;28;2934;-67
2023/12/04 13:24:38;;;;;;;;;;;;;;;-2.86;100.00;95156.25;10478816;28;2800;-65
2023/12/04 13:29:40;;;;;;;;;;;;;;;-3.15;100.00;95133.00;10472008;28;2787;-72
2023/12/04 13:34:43;;;;;;;;;;;;;;;-3.39;100.00;95129.97;10479157;28;2888;-67
2023/12/04 13:39:51;;;;;;;;;;;;;;;-3.46;100.00;95118.66;10475842;28;2929;-66
2023/12/04 13:44:53;;;;;;;;;;;;;;;-3.72;100.00;95108.16;10475149;28;4725;-70
2023/12/04 13:49:58;;;;;;;;;;;;;;;-3.48;100.00;95104.94;10468679;28;2820;-65
2023/12/04 13:55:00;;;;;;;;;;;;;;;-3.88;100.00;95106.72;10465892;28;2900;-69
2023/12/04 14:00:03;;;;;;;;;;;;;;;-4.14;100.00;95128.47;10473902;28;2903;-74
2023/12/04 14:05:06;;;;;;;;;;;;;;;-3.82;100.00;95117.25;10466982;28;2930;-67
2023/12/04 14:10:09;;;;;;;;;;;;;;;-3.84;100.00;95114.00;10470025;28;2890;-68
2023/12/04 14:15:12;;;;;;;;;;;;;;;-3.77;100.00;95118.44;10473801;28;2886;-64
2023/12/04 14:20:18;;;;;;;;;;;;;;;-3.73;100.00;95123.09;10466962;28;2906;-67
2023/12/04 14:25:20;;;;;;;;;;;;;;;-4.03;100.00;95120.03;10471300;28;2829;-68
2023/12/04 14:30:23;;;;;;;;;;;;;;;-4.14;100.00;95107.47;10473731;28;2876;-75
2023/12/04 14:35:25;;;;;;;;;;;;;;;-4.49;100.00;95112.03;10469407;28;2877;-69
2023/12/04 14:40:27;;;;;;;;;;;;;;;-4.80;100.00;95105.44;10472679;28;2851;-67
2023/12/04 14:45:30;;;;;;;;;;;;;;;-4.75;100.00;95105.66;10473829;28;2863;-67
2023/12/04 14:50:32;;;;;;;;;;;;;;;-4.83;100.00;95128.63;10470227;28;2792;-67
2023/12/04 14:56:42;;;;;;;;;;;;;;;-4.74;100.00;95133.50;10468109;28;2831;-68
2023/12/04 15:06:59;;;;;;;;;;;;;;;-4.90;100.00;95126.78;10467144;28;3050;-69
2023/12/04 15:12:18;;;;;;;;;;;;;;;-5.05;100.00;95115.59;10469562;28;2864;-70
2023/12/04 15:17:32;;;;;;;;;;;;;;;-5.14;100.00;95103.66;10479694;28;2848;-67
2023/12/04 15:22:35;;;;;;;;;;;;;;;-5.27;100.00;95103.56;10472838;28;2936;-69
2023/12/04 15:27:37;;;;;;;;;;;;;;;-5.19;100.00;95090.31;10466258;28;2904;-68
2023/12/04 15:38:25;;;;;;;;;;;;;;;-5.19;100.00;95082.47;10466124;28;2921;-70
2023/12/04 15:43:27;;;;;;;;;;;;;;;-5.45;100.00;95078.69;10466875;28;4400;-66
2023/12/04 15:48:30;;;;;;;;;;;;;;;-5.36;100.00;95091.63;10479605;28;2965;-69
2023/12/04 15:53:33;;;;;;;;;;;;;;;-5.36;100.00;95096.84;10478322;28;2996;-67
2023/12/04 15:58:35;;;;;;;;;;;;;;;-5.17;100.00;95096.97;10477536;28;2948;-67
2023/12/04 16:03:39;;;;;;;;;;;;;;;-5.14;100.00;95080.06;10484255;28;2974;-68
2023/12/04 16:08:41;;;;;;;;;;;;;;;-5.20;100.00;95067.75;10476733;28;2903;-67
2023/12/04 16:13:44;;;;;;;;;;;;;;;-5.25;100.00;95072.75;10481319;28;2799;-70
2023/12/04 16:18:46;;;;;;;;;;;;;;;-5.16;100.00;95066.34;10477369;28;2795;-68
2023/12/04 16:23:51;;;;;;;;;;;;;;;-5.22;100.00;95056.63;10479669;28;2788;-73
2023/12/04 16:28:53;;;;;;;;;;;;;;;-5.33;100.00;95065.06;10473067;28;2997;-70
2023/12/04 16:33:57;;;;;;;;;;;;;;;-5.26;100.00;95043.13;10478950;28;2975;-68
2023/12/04 16:39:03;;;;;;;;;;;;;;;-5.43;100.00;95040.00;10482518;28;2813;-68
2023/12/04 16:44:06;;;;;;;;;;;;;;;-5.42;100.00;95032.94;10471133;28;4669;-69
2023/12/04 16:49:09;;;;;;;;;;;;;;;-5.75;100.00;95030.13;10477842;28;2888;-68
2023/12/04 16:54:11;;;;;;;;;;;;;;;-5.87;100.00;95034.25;10483278;28;2938;-70
2023/12/04 16:59:14;;;;;;;;;;;;;;;-5.64;100.00;95032.22;10471581;28;2883;-70
2023/12/04 17:04:16;;;;;;;;;;;;;;;-5.60;100.00;95016.91;10471233;28;2846;-71
2023/12/04 17:09:20;;;;;;;;;;;;;;;-5.51;100.00;95019.19;10464618;28;2875;-67
2023/12/04 17:14:23;;;;;;;;;;;;;;;-5.27;100.00;95009.25;10479613;28;2859;-69
2023/12/04 17:19:29;;;;;;;;;;;;;;;-5.18;100.00;95005.47;10479487;28;3406;-70
2023/12/04 17:24:33;;;;;;;;;;;;;;;-5.03;100.00;95007.94;10468101;28;3115;-69
2023/12/04 17:29:36;;;;;;;;;;;;;;;-5.17;100.00;94991.34;10471131;28;2865;-69
2023/12/04 17:34:39;;;;;;;;;;;;;;;-5.28;100.00;94979.66;10475286;28;2886;-68
2023/12/04 17:39:42;;;;;;;;;;;;;;;-5.18;100.00;94969.59;10471174;28;2849;-69
2023/12/04 17:44:45;;;;;;;;;;;;;;;-5.22;100.00;94971.00;10469523;28;2918;-68
2023/12/04 17:49:47;;;;;;;;;;;;;;;-5.20;100.00;94986.53;10479689;28;2907;-75
2023/12/04 17:54:50;;;;;;;;;;;;;;;-5.13;100.00;94971.63;10472603;28;2842;-75
2023/12/04 17:59:53;;;;;;;;;;;;;;;-5.14;100.00;94967.41;10476789;28;2883;-73
2023/12/04 18:04:55;;;;;;;;;;;;;;;-4.97;100.00;94954.72;10472976;28;2825;-72
2023/12/04 18:09:58;;;;;;;;;;;;;;;-4.84;100.00;94959.19;10471536;28;2907;-74
2023/12/04 18:15:01;;;;;;;;;;;;;;;-4.76;100.00;94962.47;10478057;28;2880;-70
2023/12/04 18:20:06;;;;;;;;;;;;;;;-4.61;100.00;94970.16;10473503;28;2872;-72
2023/12/04 18:25:08;;;;;;;;;;;;;;;-4.51;100.00;94957.47;10474753;28;2895;-73
2023/12/04 18:30:13;;;;;;;;;;;;;;;-4.48;100.00;94943.94;10479405;28;2864;-71
2023/12/04 18:35:20;;;;;;;;;;;;;;;-4.32;100.00;94947.19;10472252;28;2767;-70
2023/12/04 18:40:24;;;;;;;;;;;;;;;-4.25;100.00;94953.25;10472737;28;2912;-69
2023/12/04 18:45:27;;;;;;;;;;;;;;;-4.05;100.00;94942.75;10469279;28;4737;-69
2023/12/04 18:50:30;;;;;;;;;;;;;;;-4.04;100.00;94939.91;10475288;28;2943;-71
2023/12/04 18:55:33;;;;;;;;;;;;;;;-3.90;100.00;94948.56;10477336;28;3267;-71
2023/12/04 19:00:38;;;;;;;;;;;;;;;-3.71;100.00;94952.19;10475606;28;2821;-71
2023/12/04 19:05:41;;;;;;;;;;;;;;;-3.60;100.00;94938.44;10470444;28;2819;-76
2023/12/04 19:10:44;;;;;;;;;;;;;;;-3.67;100.00;94937.63;10471380;28;2804;-69
2023/12/04 19:15:47;;;;;;;;;;;;;;;-3.62;100.00;94937.84;10475599;28;2887;-72
2023/12/04 19:20:50;;;;;;;;;;;;;;;-3.64;100.00;94931.97;10474228;28;3013;-73
2023/12/04 19:25:52;;;;;;;;;;;;;;;-3.66;100.00;94926.91;10474981;28;2856;-71
2023/12/04 19:30:56;;;;;;;;;;;;;;;-3.64;100.00;94913.56;10480386;28;2265;-71
2023/12/04 19:35:59;;;;;;;;;;;;;;;-3.67;100.00;94909.56;10476890;28;1611;-69
2023/12/04 19:41:03;;;;;;;;;;;;;;;-3.73;100.00;94914.81;10479751;28;1353;-71
2023/12/04 19:46:05;;;;;;;;;;;;;;;-3.72;100.00;94911.19;10508710;28;4716;-71
2023/12/04 19:51:08;;;;;;;;;;;;;;;-3.60;100.00;94918.22;10481371;28;1910;-71
2023/12/04 19:56:10;;;;;;;;;;;;;;;-3.56;100.00;94916.00;10478875;28;2832;-69
2023/12/04 20:01:13;;;;;;;;;;;;;;;-3.51;100.00;94912.72;10484883;28;2036;-73
2023/12/04 20:06:15;;;;;;;;;;;;;;;-3.54;100.00;94906.06;10481613;28;2006;-71
2023/12/04 20:11:18;;;;;;;;;;;;;;;-3.63;100.00;94896.78;10484821;28;1914;-71
2023/12/04 20:16:21;;;;;;;;;;;;;;;-3.61;100.00;94900.84;10480779;28;1588;-69
2023/12/04 20:21:23;;;;;;;;;;;;;;;-3.65;100.00;94901.47;10473935;28;1626;-72
2023/12/04 20:26:26;;;;;;;;;;;;;;;-3.67;100.00;94890.38;10474570;28;1525;-71
2023/12/04 20:31:29;;;;;;;;;;;;;;;-3.68;100.00;94886.94;10479767;28;1910;-71
2023/12/04 20:36:31;;;;;;;;;;;;;;;-3.54;100.00;94885.06;10484392;28;1582;-77
2023/12/04 20:41:34;;;;;;;;;;;;;;;-3.56;100.00;94892.34;10493830;28;1637;-76
2023/12/04 20:46:37;;;;;;;;;;;;;;;-3.65;100.00;94876.00;10494464;28;1612;-71
2023/12/04 20:51:39;;;;;;;;;;;;;;;-3.69;100.00;94864.31;10489438;28;2432;-70
2023/12/04 20:56:42;;;;;;;;;;;;;;;-3.86;100.00;94868.41;10490099;28;1700;-71
2023/12/04 21:01:45;;;;;;;;;;;;;;;-3.94;100.00;94866.81;10497363;28;1686;-71
2023/12/04 21:06:48;;;;;;;;;;;;;;;-4.13;100.00;94857.16;10504569;28;1770;-71
2023/12/04 21:11:51;;;;;;;;;;;;;;;-4.19;100.00;94856.16;10490968;28;1925;-71
2023/12/04 21:16:53;;;;;;;;;;;;;;;-4.06;100.00;94854.50;10487692;28;1575;-70
2023/12/04 21:22:02;;;;;;;;;;;;;;;-4.29;100.00;94849.69;10479279;28;1836;-75
2023/12/04 21:27:05;;;;;;;;;;;;;;;-4.27;100.00;94852.91;10488965;28;1597;-72
2023/12/04 21:32:07;;;;;;;;;;;;;;;-4.21;100.00;94850.28;10492722;28;1977;-71
2023/12/04 21:37:10;;;;;;;;;;;;;;;-4.02;100.00;94838.13;10483067;28;1594;-72
2023/12/04 21:42:12;;;;;;;;;;;;;;;-4.17;100.00;94846.25;10491421;28;1332;-76
2023/12/04 21:47:15;;;;;;;;;;;;;;;-4.22;100.00;94837.38;10484767;28;1550;-71
2023/12/04 21:52:17;;;;;;;;;;;;;;;-4.23;100.00;94823.44;10485206;28;1922;-71
2023/12/04 21:57:20;;;;;;;;;;;;;;;-4.21;100.00;94815.34;10485002;28;1409;-70
2023/12/04 22:02:22;;;;;;;;;;;;;;;-4.01;100.00;94812.69;10490398;28;1600;-70
2023/12/04 22:07:25;;;;;;;;;;;;;;;-3.99;100.00;94795.72;10478677;28;1566;-70
2023/12/04 22:12:28;;;;;;;;;;;;;;;-3.91;100.00;94799.94;10483505;28;1926;-70
2023/12/04 22:17:30;;;;;;;;;;;;;;;-3.69;100.00;94801.28;10489099;28;1522;-70
2023/12/04 22:22:33;;;;;;;;;;;;;;;-3.46;100.00;94794.69;10487657;28;1655;-70
2023/12/04 22:27:35;;;;;;;;;;;;;;;-3.24;100.00;94798.63;10489880;28;1463;-71
2023/12/04 22:32:38;;;;;;;;;;;;;;;-3.16;100.00;94789.66;10473010;28;2753;-69
2023/12/04 22:37:41;;;;;;;;;;;;;;;-3.02;100.00;94780.66;10474585;28;2883;-71
2023/12/04 22:42:45;;;;;;;;;;;;;;;-3.08;100.00;94782.31;10465886;28;2969;-70
2023/12/04 22:47:48;;;;;;;;;;;;;;;-3.01;100.00;94774.38;10477815;28;2935;-71
2023/12/04 22:52:51;;;;;;;;;;;;;;;-2.90;100.00;94768.44;10472516;28;2914;-70
2023/12/04 22:58:06;;;;;;;;;;;;;;;-2.79;100.00;94770.38;10477346;28;2832;-70
2023/12/04 23:03:09;;;;;;;;;;;;;;;-2.67;100.00;94769.66;10468830;28;2844;-71
2023/12/04 23:08:12;;;;;;;;;;;;;;;-2.59;100.00;94759.69;10471789;28;2886;-70
2023/12/04 23:13:17;;;;;;;;;;;;;;;-2.60;100.00;94758.06;10468963;28;3308;-69
2023/12/04 23:18:19;;;;;;;;;;;;;;;-2.60;100.00;94746.75;10481255;28;2820;-72
2023/12/04 23:23:22;;;;;;;;;;;;;;;-2.68;100.00;94758.31;10473062;28;2866;-70
2023/12/04 23:28:24;;;;;;;;;;;;;;;-2.73;100.00;94766.09;10476390;28;2822;-72
2023/12/04 23:33:27;;;;;;;;;;;;;;;-2.77;100.00;94755.16;10471570;28;2859;-71
2023/12/04 23:38:30;;;;;;;;;;;;;;;-2.63;100.00;94752.41;10469603;28;2965;-73
2023/12/04 23:43:33;;;;;;;;;;;;;;;-2.56;100.00;94746.06;10462693;28;4654;-71
2023/12/04 23:48:38;;;;;;;;;;;;;;;-2.54;100.00;94741.41;10469021;28;2872;-70
2023/12/04 23:53:40;;;;;;;;;;;;;;;-2.44;100.00;94735.63;10470316;28;2901;-69
2023/12/04 23:58:43;;;;;;;;;;;;;;;-2.27;100.00;94741.94;10472322;28;2843;-69
